Hinmansville, New York
Current Conditions -  °F | °C
As of 10:30 AM on Thursday 30 Oct 2014 (Local Time) from KFZY Reporting Station
Overcast Overcast  
Wind Chill: 42°   Ceiling: 2400
Heat Index: 46°   Visibility: 10mi
Dew Point: 38°   Wind: 7mph
Humidity: 73%   Direction: 310°NW
Pressure: 30.03"   Gusts: NA
Location:  43.2769°N, 76.306°W
Report Text: KFZY 301430Z AUTO 31006KT 10SM BKN024 OVC030 08/03 A3003 RMK AO2 T00780033
Loading
Personal Weather Stations






























Interactive Weather Map
Tropical Storm Tracking
New forecast layout! Learn more

10-Day Weather Forecast

Advertisements
Track Severe Weather on mobile